sensor_id;sensor_type;location;lat;lon;timestamp;temperature;humidity
11591;DHT22;5851;54.050;9.974;2023-11-19T00:00:30;5.10;99.90
11591;DHT22;5851;54.050;9.974;2023-11-19T00:02:57;5.20;99.90
11591;DHT22;5851;54.050;9.974;2023-11-19T00:05:24;5.20;99.90
11591;DHT22;5851;54.050;9.974;2023-11-19T00:07:51;5.20;99.90
11591;DHT22;5851;54.050;9.974;2023-11-19T00:10:20;5.20;99.90
11591;DHT22;5851;54.050;9.974;2023-11-19T00:12:47;5.20;99.90
11591;DHT22;5851;54.050;9.974;2023-11-19T00:15:15;5.20;99.90
11591;DHT22;5851;54.050;9.974;2023-11-19T00:17:45;5.30;99.90
11591;DHT22;5851;54.050;9.974;2023-11-19T00:20:13;5.20;99.90
11591;DHT22;5851;54.050;9.974;2023-11-19T00:22:41;5.20;99.90
11591;DHT22;5851;54.050;9.974;2023-11-19T00:25:08;5.30;99.90
11591;DHT22;5851;54.050;9.974;2023-11-19T00:27:37;5.30;99.90
11591;DHT22;5851;54.050;9.974;2023-11-19T00:30:04;5.10;99.90
11591;DHT22;5851;54.050;9.974;2023-11-19T00:32:32;5.20;99.90
11591;DHT22;5851;54.050;9.974;2023-11-19T00:34:59;5.10;99.90
11591;DHT22;5851;54.050;9.974;2023-11-19T00:37:26;5.10;99.90
11591;DHT22;5851;54.050;9.974;2023-11-19T00:39:53;5.20;99.90
11591;DHT22;5851;54.050;9.974;2023-11-19T00:42:21;5.30;99.90
11591;DHT22;5851;54.050;9.974;2023-11-19T00:44:51;5.30;99.90
11591;DHT22;5851;54.050;9.974;2023-11-19T00:47:18;5.30;99.90
11591;DHT22;5851;54.050;9.974;2023-11-19T00:49:46;5.20;99.90
11591;DHT22;5851;54.050;9.974;2023-11-19T00:52:14;5.20;99.90
11591;DHT22;5851;54.050;9.974;2023-11-19T00:54:41;5.30;99.90
11591;DHT22;5851;54.050;9.974;2023-11-19T00:57:08;5.30;99.90
11591;DHT22;5851;54.050;9.974;2023-11-19T00:59:35;5.20;99.90
11591;DHT22;5851;54.050;9.974;2023-11-19T01:02:03;5.10;99.90
11591;DHT22;5851;54.050;9.974;2023-11-19T01:04:33;5.30;99.90
11591;DHT22;5851;54.050;9.974;2023-11-19T01:07:02;5.40;99.90
11591;DHT22;5851;54.050;9.974;2023-11-19T01:09:30;5.50;99.90
11591;DHT22;5851;54.050;9.974;2023-11-19T01:12:00;5.30;99.90
11591;DHT22;5851;54.050;9.974;2023-11-19T01:14:27;5.20;99.90
11591;DHT22;5851;54.050;9.974;2023-11-19T01:16:54;5.20;99.90
11591;DHT22;5851;54.050;9.974;2023-11-19T01:19:23;5.30;99.90
11591;DHT22;5851;54.050;9.974;2023-11-19T01:21:50;5.20;99.90
11591;DHT22;5851;54.050;9.974;2023-11-19T01:24:19;5.30;99.90
11591;DHT22;5851;54.050;9.974;2023-11-19T01:26:47;5.40;99.90
11591;DHT22;5851;54.050;9.974;2023-11-19T01:29:15;5.40;99.90
11591;DHT22;5851;54.050;9.974;2023-11-19T01:31:42;5.40;99.90
11591;DHT22;5851;54.050;9.974;2023-11-19T01:34:10;5.40;99.90
11591;DHT22;5851;54.050;9.974;2023-11-19T01:36:39;5.40;99.90
11591;DHT22;5851;54.050;9.974;2023-11-19T01:39:06;5.30;99.90
11591;DHT22;5851;54.050;9.974;2023-11-19T01:41:34;5.30;99.90
11591;DHT22;5851;54.050;9.974;2023-11-19T01:44:02;5.30;99.90
11591;DHT22;5851;54.050;9.974;2023-11-19T01:46:30;5.20;99.90
11591;DHT22;5851;54.050;9.974;2023-11-19T01:48:59;5.20;99.90
11591;DHT22;5851;54.050;9.974;2023-11-19T01:51:27;5.30;99.90
11591;DHT22;5851;54.050;9.974;2023-11-19T01:53:55;5.40;99.90
11591;DHT22;5851;54.050;9.974;2023-11-19T01:56:24;5.40;99.90
11591;DHT22;5851;54.050;9.974;2023-11-19T01:58:53;5.40;99.90
11591;DHT22;5851;54.050;9.974;2023-11-19T02:01:21;5.40;99.90
11591;DHT22;5851;54.050;9.974;2023-11-19T02:03:48;5.30;99.90
11591;DHT22;5851;54.050;9.974;2023-11-19T02:06:15;5.30;99.90
11591;DHT22;5851;54.050;9.974;2023-11-19T02:08:42;5.40;99.90
11591;DHT22;5851;54.050;9.974;2023-11-19T02:11:11;5.50;99.90
11591;DHT22;5851;54.050;9.974;2023-11-19T02:13:38;5.50;99.90
11591;DHT22;5851;54.050;9.974;2023-11-19T02:16:07;5.50;99.90
11591;DHT22;5851;54.050;9.974;2023-11-19T02:18:35;5.50;99.90
11591;DHT22;5851;54.050;9.974;2023-11-19T02:21:02;5.40;99.90
11591;DHT22;5851;54.050;9.974;2023-11-19T02:23:30;5.50;99.90
11591;DHT22;5851;54.050;9.974;2023-11-19T02:26:12;5.50;99.90
11591;DHT22;5851;54.050;9.974;2023-11-19T02:28:42;5.40;99.90
11591;DHT22;5851;54.050;9.974;2023-11-19T02:31:09;5.50;99.90
11591;DHT22;5851;54.050;9.974;2023-11-19T02:33:37;5.40;99.90
11591;DHT22;5851;54.050;9.974;2023-11-19T02:36:04;5.50;99.90
11591;DHT22;5851;54.050;9.974;2023-11-19T02:38:33;5.50;99.90
11591;DHT22;5851;54.050;9.974;2023-11-19T02:41:02;5.50;99.90
11591;DHT22;5851;54.050;9.974;2023-11-19T02:43:30;5.50;99.90
11591;DHT22;5851;54.050;9.974;2023-11-19T02:46:01;5.70;99.90
11591;DHT22;5851;54.050;9.974;2023-11-19T02:48:28;5.40;99.90
11591;DHT22;5851;54.050;9.974;2023-11-19T02:50:56;5.30;99.90
11591;DHT22;5851;54.050;9.974;2023-11-19T02:53:24;5.60;99.90
11591;DHT22;5851;54.050;9.974;2023-11-19T02:55:53;5.50;99.90
11591;DHT22;5851;54.050;9.974;2023-11-19T02:58:27;5.60;99.90
11591;DHT22;5851;54.050;9.974;2023-11-19T03:00:54;5.60;99.90
11591;DHT22;5851;54.050;9.974;2023-11-19T03:03:26;5.50;99.90
11591;DHT22;5851;54.050;9.974;2023-11-19T03:06:04;5.50;99.90
11591;DHT22;5851;54.050;9.974;2023-11-19T03:08:31;5.60;99.90
11591;DHT22;5851;54.050;9.974;2023-11-19T03:10:59;5.60;99.90
11591;DHT22;5851;54.050;9.974;2023-11-19T03:13:26;5.50;99.90
11591;DHT22;5851;54.050;9.974;2023-11-19T03:15:53;5.60;99.90
11591;DHT22;5851;54.050;9.974;2023-11-19T03:18:20;5.50;99.90
11591;DHT22;5851;54.050;9.974;2023-11-19T03:20:48;5.40;99.90
11591;DHT22;5851;54.050;9.974;2023-11-19T03:23:16;5.50;99.90
11591;DHT22;5851;54.050;9.974;2023-11-19T03:25:43;5.70;99.90
11591;DHT22;5851;54.050;9.974;2023-11-19T03:28:10;5.70;99.90
11591;DHT22;5851;54.050;9.974;2023-11-19T03:30:37;5.70;99.90
11591;DHT22;5851;54.050;9.974;2023-11-19T03:33:04;5.70;99.90
11591;DHT22;5851;54.050;9.974;2023-11-19T03:35:31;5.60;99.90
11591;DHT22;5851;54.050;9.974;2023-11-19T03:38:00;5.60;99.90
11591;DHT22;5851;54.050;9.974;2023-11-19T03:40:28;5.60;99.90
11591;DHT22;5851;54.050;9.974;2023-11-19T03:42:56;5.60;99.90
11591;DHT22;5851;54.050;9.974;2023-11-19T03:45:23;5.60;99.90
11591;DHT22;5851;54.050;9.974;2023-11-19T03:47:50;5.60;99.90
11591;DHT22;5851;54.050;9.974;2023-11-19T03:50:17;5.60;99.90
11591;DHT22;5851;54.050;9.974;2023-11-19T03:52:45;5.60;99.90
11591;DHT22;5851;54.050;9.974;2023-11-19T03:55:14;5.70;99.90
11591;DHT22;5851;54.050;9.974;2023-11-19T03:57:41;5.70;99.90
11591;DHT22;5851;54.050;9.974;2023-11-19T04:00:08;5.70;99.90
11591;DHT22;5851;54.050;9.974;2023-11-19T04:02:36;5.80;99.90
11591;DHT22;5851;54.050;9.974;2023-11-19T04:05:03;5.80;99.90
11591;DHT22;5851;54.050;9.974;2023-11-19T04:07:30;5.70;99.90
11591;DHT22;5851;54.050;9.974;2023-11-19T04:09:57;5.70;99.90
11591;DHT22;5851;54.050;9.974;2023-11-19T04:12:25;5.70;99.90
11591;DHT22;5851;54.050;9.974;2023-11-19T04:14:52;5.70;99.90
11591;DHT22;5851;54.050;9.974;2023-11-19T04:17:19;5.70;99.90
11591;DHT22;5851;54.050;9.974;2023-11-19T04:19:46;5.80;99.90
11591;DHT22;5851;54.050;9.974;2023-11-19T04:22:13;5.80;99.90
11591;DHT22;5851;54.050;9.974;2023-11-19T04:24:40;5.80;99.90
11591;DHT22;5851;54.050;9.974;2023-11-19T04:27:09;5.90;99.90
11591;DHT22;5851;54.050;9.974;2023-11-19T04:29:41;5.90;99.90
11591;DHT22;5851;54.050;9.974;2023-11-19T04:32:07;5.90;99.90
11591;DHT22;5851;54.050;9.974;2023-11-19T04:34:34;5.80;99.90
11591;DHT22;5851;54.050;9.974;2023-11-19T04:37:03;5.80;99.90
11591;DHT22;5851;54.050;9.974;2023-11-19T04:39:30;5.90;99.90
11591;DHT22;5851;54.050;9.974;2023-11-19T04:41:57;5.90;99.90
11591;DHT22;5851;54.050;9.974;2023-11-19T04:44:25;5.90;99.90
11591;DHT22;5851;54.050;9.974;2023-11-19T04:46:53;5.90;99.90
11591;DHT22;5851;54.050;9.974;2023-11-19T04:49:20;6.00;99.90
11591;DHT22;5851;54.050;9.974;2023-11-19T04:51:47;6.00;99.90
11591;DHT22;5851;54.050;9.974;2023-11-19T04:54:13;5.90;99.90
11591;DHT22;5851;54.050;9.974;2023-11-19T04:56:40;5.90;99.90
11591;DHT22;5851;54.050;9.974;2023-11-19T04:59:11;6.00;99.90
11591;DHT22;5851;54.050;9.974;2023-11-19T05:01:38;6.00;99.90
11591;DHT22;5851;54.050;9.974;2023-11-19T05:04:07;6.10;99.90
11591;DHT22;5851;54.050;9.974;2023-11-19T05:06:34;5.90;99.90
11591;DHT22;5851;54.050;9.974;2023-11-19T05:09:01;6.00;99.90
11591;DHT22;5851;54.050;9.974;2023-11-19T05:11:30;6.00;99.90
11591;DHT22;5851;54.050;9.974;2023-11-19T05:13:57;5.90;99.90
11591;DHT22;5851;54.050;9.974;2023-11-19T05:16:24;6.10;99.90
11591;DHT22;5851;54.050;9.974;2023-11-19T05:18:50;6.10;99.90
11591;DHT22;5851;54.050;9.974;2023-11-19T05:21:19;6.10;99.90
11591;DHT22;5851;54.050;9.974;2023-11-19T05:23:46;6.10;99.90
11591;DHT22;5851;54.050;9.974;2023-11-19T05:26:18;6.10;99.90
11591;DHT22;5851;54.050;9.974;2023-11-19T05:28:45;6.10;99.90
11591;DHT22;5851;54.050;9.974;2023-11-19T05:31:12;6.10;99.90
11591;DHT22;5851;54.050;9.974;2023-11-19T05:33:39;6.30;99.90
11591;DHT22;5851;54.050;9.974;2023-11-19T05:36:07;6.10;99.90
11591;DHT22;5851;54.050;9.974;2023-11-19T05:38:36;6.20;99.90
11591;DHT22;5851;54.050;9.974;2023-11-19T05:41:03;6.20;99.90
11591;DHT22;5851;54.050;9.974;2023-11-19T05:43:30;6.30;99.90
11591;DHT22;5851;54.050;9.974;2023-11-19T05:45:57;6.40;99.90
11591;DHT22;5851;54.050;9.974;2023-11-19T05:48:26;6.30;99.90
11591;DHT22;5851;54.050;9.974;2023-11-19T05:50:53;6.40;99.90
11591;DHT22;5851;54.050;9.974;2023-11-19T05:53:20;6.40;99.90
11591;DHT22;5851;54.050;9.974;2023-11-19T05:55:49;6.50;99.90
11591;DHT22;5851;54.050;9.974;2023-11-19T05:58:23;6.50;99.90
11591;DHT22;5851;54.050;9.974;2023-11-19T06:00:50;6.50;99.90
11591;DHT22;5851;54.050;9.974;2023-11-19T06:03:17;6.50;99.90
11591;DHT22;5851;54.050;9.974;2023-11-19T06:05:44;6.50;99.90
11591;DHT22;5851;54.050;9.974;2023-11-19T06:08:12;6.50;99.90
11591;DHT22;5851;54.050;9.974;2023-11-19T06:10:40;6.60;99.90
11591;DHT22;5851;54.050;9.974;2023-11-19T06:13:08;6.50;99.90
11591;DHT22;5851;54.050;9.974;2023-11-19T06:15:37;6.60;99.90
11591;DHT22;5851;54.050;9.974;2023-11-19T06:18:04;6.70;99.90
11591;DHT22;5851;54.050;9.974;2023-11-19T06:20:33;6.70;99.90
11591;DHT22;5851;54.050;9.974;2023-11-19T06:23:00;6.70;99.90
11591;DHT22;5851;54.050;9.974;2023-11-19T06:25:27;6.80;99.90
11591;DHT22;5851;54.050;9.974;2023-11-19T06:27:54;6.80;99.90
11591;DHT22;5851;54.050;9.974;2023-11-19T06:30:24;6.80;99.90
11591;DHT22;5851;54.050;9.974;2023-11-19T06:32:51;6.90;99.90
11591;DHT22;5851;54.050;9.974;2023-11-19T06:35:18;6.80;99.90
11591;DHT22;5851;54.050;9.974;2023-11-19T06:37:45;6.90;99.90
11591;DHT22;5851;54.050;9.974;2023-11-19T06:40:12;6.90;99.90
11591;DHT22;5851;54.050;9.974;2023-11-19T06:42:41;7.00;99.90
11591;DHT22;5851;54.050;9.974;2023-11-19T06:45:08;7.10;99.90
11591;DHT22;5851;54.050;9.974;2023-11-19T06:47:37;7.10;99.90
11591;DHT22;5851;54.050;9.974;2023-11-19T06:50:05;7.20;99.90
11591;DHT22;5851;54.050;9.974;2023-11-19T06:52:32;7.40;99.90
11591;DHT22;5851;54.050;9.974;2023-11-19T06:54:59;7.50;99.90
11591;DHT22;5851;54.050;9.974;2023-11-19T06:57:26;7.50;99.90
11591;DHT22;5851;54.050;9.974;2023-11-19T06:59:55;7.60;99.90
11591;DHT22;5851;54.050;9.974;2023-11-19T07:02:22;7.70;99.90
11591;DHT22;5851;54.050;9.974;2023-11-19T07:04:50;7.90;99.90
11591;DHT22;5851;54.050;9.974;2023-11-19T07:07:17;8.00;99.90
11591;DHT22;5851;54.050;9.974;2023-11-19T07:09:45;8.20;99.90
11591;DHT22;5851;54.050;9.974;2023-11-19T07:12:13;8.20;99.90
11591;DHT22;5851;54.050;9.974;2023-11-19T07:14:41;8.10;99.90
11591;DHT22;5851;54.050;9.974;2023-11-19T07:17:08;8.20;99.90
11591;DHT22;5851;54.050;9.974;2023-11-19T07:19:35;8.30;99.90
11591;DHT22;5851;54.050;9.974;2023-11-19T07:22:05;8.50;99.90
11591;DHT22;5851;54.050;9.974;2023-11-19T07:24:32;8.40;99.90
11591;DHT22;5851;54.050;9.974;2023-11-19T07:26:59;8.60;99.90
11591;DHT22;5851;54.050;9.974;2023-11-19T07:29:29;8.70;99.90
11591;DHT22;5851;54.050;9.974;2023-11-19T07:31:55;8.90;99.90
11591;DHT22;5851;54.050;9.974;2023-11-19T07:34:22;8.80;99.90
11591;DHT22;5851;54.050;9.974;2023-11-19T07:36:50;9.10;99.90
11591;DHT22;5851;54.050;9.974;2023-11-19T07:39:18;9.10;99.90
11591;DHT22;5851;54.050;9.974;2023-11-19T07:41:46;9.10;99.90
11591;DHT22;5851;54.050;9.974;2023-11-19T07:44:13;8.90;99.90
11591;DHT22;5851;54.050;9.974;2023-11-19T07:46:40;9.20;99.90
11591;DHT22;5851;54.050;9.974;2023-11-19T07:49:07;9.20;99.90
11591;DHT22;5851;54.050;9.974;2023-11-19T07:51:35;9.20;99.90
11591;DHT22;5851;54.050;9.974;2023-11-19T07:54:02;9.40;99.90
11591;DHT22;5851;54.050;9.974;2023-11-19T07:56:31;9.30;99.90
11591;DHT22;5851;54.050;9.974;2023-11-19T07:58:59;9.20;99.90
11591;DHT22;5851;54.050;9.974;2023-11-19T08:01:26;9.30;99.90
11591;DHT22;5851;54.050;9.974;2023-11-19T08:03:53;9.40;99.90
11591;DHT22;5851;54.050;9.974;2023-11-19T08:06:20;9.40;99.90
11591;DHT22;5851;54.050;9.974;2023-11-19T08:08:48;9.40;99.90
11591;DHT22;5851;54.050;9.974;2023-11-19T08:11:15;9.50;99.90
11591;DHT22;5851;54.050;9.974;2023-11-19T08:13:43;9.50;99.90
11591;DHT22;5851;54.050;9.974;2023-11-19T08:16:10;9.60;99.90
11591;DHT22;5851;54.050;9.974;2023-11-19T08:18:37;9.50;99.90
11591;DHT22;5851;54.050;9.974;2023-11-19T08:21:04;9.60;99.90
11591;DHT22;5851;54.050;9.974;2023-11-19T08:23:31;9.50;99.90
11591;DHT22;5851;54.050;9.974;2023-11-19T08:25:58;9.60;99.90
11591;DHT22;5851;54.050;9.974;2023-11-19T08:28:25;9.40;99.90
11591;DHT22;5851;54.050;9.974;2023-11-19T08:30:54;9.60;99.90
11591;DHT22;5851;54.050;9.974;2023-11-19T08:33:21;9.60;99.90
11591;DHT22;5851;54.050;9.974;2023-11-19T08:35:49;9.60;99.90
11591;DHT22;5851;54.050;9.974;2023-11-19T08:38:16;9.60;99.90
11591;DHT22;5851;54.050;9.974;2023-11-19T08:40:43;9.60;99.90
11591;DHT22;5851;54.050;9.974;2023-11-19T08:43:10;9.40;99.90
11591;DHT22;5851;54.050;9.974;2023-11-19T08:45:37;9.60;99.90
11591;DHT22;5851;54.050;9.974;2023-11-19T08:48:06;9.80;99.90
11591;DHT22;5851;54.050;9.974;2023-11-19T08:50:32;9.90;99.90
11591;DHT22;5851;54.050;9.974;2023-11-19T08:53:00;9.90;99.90
11591;DHT22;5851;54.050;9.974;2023-11-19T08:55:27;9.90;99.90
11591;DHT22;5851;54.050;9.974;2023-11-19T08:57:54;9.70;99.90
11591;DHT22;5851;54.050;9.974;2023-11-19T09:00:21;9.70;99.90
11591;DHT22;5851;54.050;9.974;2023-11-19T09:02:48;9.60;99.90
11591;DHT22;5851;54.050;9.974;2023-11-19T09:05:16;9.70;99.90
11591;DHT22;5851;54.050;9.974;2023-11-19T09:07:43;9.60;99.90
11591;DHT22;5851;54.050;9.974;2023-11-19T09:10:10;9.70;99.90
11591;DHT22;5851;54.050;9.974;2023-11-19T09:12:37;9.90;99.90
11591;DHT22;5851;54.050;9.974;2023-11-19T09:15:05;9.80;99.90
11591;DHT22;5851;54.050;9.974;2023-11-19T09:17:33;9.90;99.90
11591;DHT22;5851;54.050;9.974;2023-11-19T09:20:00;9.90;99.90
11591;DHT22;5851;54.050;9.974;2023-11-19T09:22:28;9.90;99.90
11591;DHT22;5851;54.050;9.974;2023-11-19T09:24:55;9.90;99.90
11591;DHT22;5851;54.050;9.974;2023-11-19T09:27:22;10.00;99.90
11591;DHT22;5851;54.050;9.974;2023-11-19T09:29:49;10.00;99.90
11591;DHT22;5851;54.050;9.974;2023-11-19T09:32:22;9.80;99.90
11591;DHT22;5851;54.050;9.974;2023-11-19T09:34:49;9.80;99.90
11591;DHT22;5851;54.050;9.974;2023-11-19T09:37:16;9.80;99.90
11591;DHT22;5851;54.050;9.974;2023-11-19T09:39:44;9.90;99.90
11591;DHT22;5851;54.050;9.974;2023-11-19T09:42:12;9.80;99.90
11591;DHT22;5851;54.050;9.974;2023-11-19T09:44:39;9.70;99.90
11591;DHT22;5851;54.050;9.974;2023-11-19T09:47:08;9.70;99.90
11591;DHT22;5851;54.050;9.974;2023-11-19T09:49:36;9.70;99.90
11591;DHT22;5851;54.050;9.974;2023-11-19T09:52:04;9.80;99.90
11591;DHT22;5851;54.050;9.974;2023-11-19T09:54:31;9.80;99.90
11591;DHT22;5851;54.050;9.974;2023-11-19T09:56:59;9.70;99.90
11591;DHT22;5851;54.050;9.974;2023-11-19T09:59:29;9.90;99.90
11591;DHT22;5851;54.050;9.974;2023-11-19T10:01:56;9.90;99.90
11591;DHT22;5851;54.050;9.974;2023-11-19T10:04:24;9.80;99.90
11591;DHT22;5851;54.050;9.974;2023-11-19T10:06:52;9.80;99.90
11591;DHT22;5851;54.050;9.974;2023-11-19T10:09:19;9.90;99.90
11591;DHT22;5851;54.050;9.974;2023-11-19T10:11:46;9.80;99.90
11591;DHT22;5851;54.050;9.974;2023-11-19T10:14:14;9.90;99.90
11591;DHT22;5851;54.050;9.974;2023-11-19T10:16:41;9.90;99.90
11591;DHT22;5851;54.050;9.974;2023-11-19T10:19:12;9.90;99.90
11591;DHT22;5851;54.050;9.974;2023-11-19T10:21:46;9.90;99.90
11591;DHT22;5851;54.050;9.974;2023-11-19T10:24:13;9.90;99.90
11591;DHT22;5851;54.050;9.974;2023-11-19T10:26:40;9.90;99.90
11591;DHT22;5851;54.050;9.974;2023-11-19T10:29:08;10.00;99.90
11591;DHT22;5851;54.050;9.974;2023-11-19T10:31:40;9.90;99.90
11591;DHT22;5851;54.050;9.974;2023-11-19T10:34:24;10.00;99.90
11591;DHT22;5851;54.050;9.974;2023-11-19T10:36:51;10.10;99.90
11591;DHT22;5851;54.050;9.974;2023-11-19T10:39:18;10.10;99.90
11591;DHT22;5851;54.050;9.974;2023-11-19T10:41:46;10.10;99.90
11591;DHT22;5851;54.050;9.974;2023-11-19T10:44:31;10.10;99.90
11591;DHT22;5851;54.050;9.974;2023-11-19T10:47:00;10.20;99.90
11591;DHT22;5851;54.050;9.974;2023-11-19T10:49:27;10.20;99.90
11591;DHT22;5851;54.050;9.974;2023-11-19T10:51:55;10.20;99.90
11591;DHT22;5851;54.050;9.974;2023-11-19T10:54:24;10.20;99.90
11591;DHT22;5851;54.050;9.974;2023-11-19T10:56:55;10.10;99.90
11591;DHT22;5851;54.050;9.974;2023-11-19T10:59:29;10.00;99.90
11591;DHT22;5851;54.050;9.974;2023-11-19T11:01:57;10.10;99.90
11591;DHT22;5851;54.050;9.974;2023-11-19T11:04:26;10.20;99.90
11591;DHT22;5851;54.050;9.974;2023-11-19T11:06:58;10.20;99.90
11591;DHT22;5851;54.050;9.974;2023-11-19T11:09:27;10.10;99.90
11591;DHT22;5851;54.050;9.974;2023-11-19T11:11:54;10.20;99.90
11591;DHT22;5851;54.050;9.974;2023-11-19T11:14:24;10.10;99.90
11591;DHT22;5851;54.050;9.974;2023-11-19T11:16:53;10.20;99.90
11591;DHT22;5851;54.050;9.974;2023-11-19T11:19:20;10.20;99.90
11591;DHT22;5851;54.050;9.974;2023-11-19T11:21:52;10.20;99.90
11591;DHT22;5851;54.050;9.974;2023-11-19T11:24:33;10.20;99.90
11591;DHT22;5851;54.050;9.974;2023-11-19T11:27:23;10.10;99.90
11591;DHT22;5851;54.050;9.974;2023-11-19T11:30:02;10.20;99.90
11591;DHT22;5851;54.050;9.974;2023-11-19T11:32:37;10.20;99.90
11591;DHT22;5851;54.050;9.974;2023-11-19T11:35:17;10.10;99.90
11591;DHT22;5851;54.050;9.974;2023-11-19T11:37:50;10.10;99.90
11591;DHT22;5851;54.050;9.974;2023-11-19T11:40:19;10.10;99.90
11591;DHT22;5851;54.050;9.974;2023-11-19T11:42:49;10.10;99.90
11591;DHT22;5851;54.050;9.974;2023-11-19T11:45:17;10.10;99.90
11591;DHT22;5851;54.050;9.974;2023-11-19T11:50:54;10.10;99.90
11591;DHT22;5851;54.050;9.974;2023-11-19T11:53:25;10.00;99.90
11591;DHT22;5851;54.050;9.974;2023-11-19T11:55:57;10.00;99.90
11591;DHT22;5851;54.050;9.974;2023-11-19T11:58:35;10.00;99.90
11591;DHT22;5851;54.050;9.974;2023-11-19T12:01:05;10.00;99.90
11591;DHT22;5851;54.050;9.974;2023-11-19T12:03:37;10.00;99.90
11591;DHT22;5851;54.050;9.974;2023-11-19T12:06:05;10.10;99.90
11591;DHT22;5851;54.050;9.974;2023-11-19T12:08:35;10.10;99.90
11591;DHT22;5851;54.050;9.974;2023-11-19T12:11:02;10.10;99.90
11591;DHT22;5851;54.050;9.974;2023-11-19T12:13:53;10.10;99.90
11591;DHT22;5851;54.050;9.974;2023-11-19T12:16:24;10.10;99.90
11591;DHT22;5851;54.050;9.974;2023-11-19T12:18:53;10.10;99.90
11591;DHT22;5851;54.050;9.974;2023-11-19T12:21:30;10.10;99.90
11591;DHT22;5851;54.050;9.974;2023-11-19T12:23:59;10.10;99.90
11591;DHT22;5851;54.050;9.974;2023-11-19T12:26:40;10.10;99.90
11591;DHT22;5851;54.050;9.974;2023-11-19T12:29:07;10.10;99.90
11591;DHT22;5851;54.050;9.974;2023-11-19T12:31:34;10.20;99.90
11591;DHT22;5851;54.050;9.974;2023-11-19T12:34:09;10.20;99.90
11591;DHT22;5851;54.050;9.974;2023-11-19T12:36:41;10.20;99.90
11591;DHT22;5851;54.050;9.974;2023-11-19T12:39:10;10.20;99.90
11591;DHT22;5851;54.050;9.974;2023-11-19T12:41:52;10.20;99.90
11591;DHT22;5851;54.050;9.974;2023-11-19T12:44:18;10.20;99.90
11591;DHT22;5851;54.050;9.974;2023-11-19T12:46:45;10.10;99.90
11591;DHT22;5851;54.050;9.974;2023-11-19T12:49:12;10.10;99.90
11591;DHT22;5851;54.050;9.974;2023-11-19T12:51:39;10.10;99.90
11591;DHT22;5851;54.050;9.974;2023-11-19T12:54:06;10.20;99.90
11591;DHT22;5851;54.050;9.974;2023-11-19T12:56:35;10.20;99.90
11591;DHT22;5851;54.050;9.974;2023-11-19T12:59:10;10.20;99.90
11591;DHT22;5851;54.050;9.974;2023-11-19T13:01:38;10.10;99.90
11591;DHT22;5851;54.050;9.974;2023-11-19T13:04:16;10.10;99.90
11591;DHT22;5851;54.050;9.974;2023-11-19T13:06:45;10.10;99.90
11591;DHT22;5851;54.050;9.974;2023-11-19T13:09:21;10.20;99.90
11591;DHT22;5851;54.050;9.974;2023-11-19T13:11:50;10.20;99.90
11591;DHT22;5851;54.050;9.974;2023-11-19T13:14:18;10.20;99.90
11591;DHT22;5851;54.050;9.974;2023-11-19T13:16:45;10.20;99.90
11591;DHT22;5851;54.050;9.974;2023-11-19T13:19:13;10.20;99.90
11591;DHT22;5851;54.050;9.974;2023-11-19T13:21:41;10.30;99.90
11591;DHT22;5851;54.050;9.974;2023-11-19T13:24:11;10.20;99.90
11591;DHT22;5851;54.050;9.974;2023-11-19T13:26:38;10.20;99.90
11591;DHT22;5851;54.050;9.974;2023-11-19T13:29:06;10.20;99.90
11591;DHT22;5851;54.050;9.974;2023-11-19T13:31:36;10.30;99.90
11591;DHT22;5851;54.050;9.974;2023-11-19T13:34:03;10.20;99.90
11591;DHT22;5851;54.050;9.974;2023-11-19T13:36:32;10.20;99.90
11591;DHT22;5851;54.050;9.974;2023-11-19T13:38:59;10.30;99.90
11591;DHT22;5851;54.050;9.974;2023-11-19T13:41:26;10.20;99.90
11591;DHT22;5851;54.050;9.974;2023-11-19T13:43:53;10.20;99.90
11591;DHT22;5851;54.050;9.974;2023-11-19T13:46:22;10.20;99.90
11591;DHT22;5851;54.050;9.974;2023-11-19T13:48:49;10.20;99.90
11591;DHT22;5851;54.050;9.974;2023-11-19T13:51:16;10.20;99.90
11591;DHT22;5851;54.050;9.974;2023-11-19T13:53:43;10.20;99.90
11591;DHT22;5851;54.050;9.974;2023-11-19T13:56:10;10.20;99.90
11591;DHT22;5851;54.050;9.974;2023-11-19T13:58:47;10.30;99.90
11591;DHT22;5851;54.050;9.974;2023-11-19T14:01:16;10.20;99.90
11591;DHT22;5851;54.050;9.974;2023-11-19T14:04:01;10.20;99.90
11591;DHT22;5851;54.050;9.974;2023-11-19T14:06:30;10.20;99.90
11591;DHT22;5851;54.050;9.974;2023-11-19T14:09:06;10.20;99.90
11591;DHT22;5851;54.050;9.974;2023-11-19T14:11:56;10.10;99.90
11591;DHT22;5851;54.050;9.974;2023-11-19T14:14:23;10.10;99.90
11591;DHT22;5851;54.050;9.974;2023-11-19T14:16:50;10.10;99.90
11591;DHT22;5851;54.050;9.974;2023-11-19T14:19:19;10.10;99.90
11591;DHT22;5851;54.050;9.974;2023-11-19T14:21:45;10.00;99.90
11591;DHT22;5851;54.050;9.974;2023-11-19T14:24:13;10.00;99.90
11591;DHT22;5851;54.050;9.974;2023-11-19T14:26:40;10.10;99.90
11591;DHT22;5851;54.050;9.974;2023-11-19T14:29:06;10.00;99.90
11591;DHT22;5851;54.050;9.974;2023-11-19T14:31:33;10.00;99.90
11591;DHT22;5851;54.050;9.974;2023-11-19T14:34:01;10.00;99.90
11591;DHT22;5851;54.050;9.974;2023-11-19T14:36:29;10.00;99.90
11591;DHT22;5851;54.050;9.974;2023-11-19T14:38:56;9.90;99.90
11591;DHT22;5851;54.050;9.974;2023-11-19T14:41:24;9.90;99.90
11591;DHT22;5851;54.050;9.974;2023-11-19T14:43:51;9.90;99.90
11591;DHT22;5851;54.050;9.974;2023-11-19T14:46:18;9.90;99.90
11591;DHT22;5851;54.050;9.974;2023-11-19T14:48:45;9.90;99.90
11591;DHT22;5851;54.050;9.974;2023-11-19T14:51:11;9.90;99.90
11591;DHT22;5851;54.050;9.974;2023-11-19T14:53:40;9.90;99.90
11591;DHT22;5851;54.050;9.974;2023-11-19T14:56:10;9.90;99.90
11591;DHT22;5851;54.050;9.974;2023-11-19T14:58:38;9.80;99.90
11591;DHT22;5851;54.050;9.974;2023-11-19T15:01:05;9.90;99.90
11591;DHT22;5851;54.050;9.974;2023-11-19T15:03:32;9.80;99.90
11591;DHT22;5851;54.050;9.974;2023-11-19T15:05:59;9.90;99.90
11591;DHT22;5851;54.050;9.974;2023-11-19T15:08:26;9.80;99.90
11591;DHT22;5851;54.050;9.974;2023-11-19T15:10:55;9.90;99.90
11591;DHT22;5851;54.050;9.974;2023-11-19T15:13:23;9.80;99.90
11591;DHT22;5851;54.050;9.974;2023-11-19T15:15:50;9.80;99.90
11591;DHT22;5851;54.050;9.974;2023-11-19T15:18:18;9.70;99.90
11591;DHT22;5851;54.050;9.974;2023-11-19T15:20:46;9.80;99.90
11591;DHT22;5851;54.050;9.974;2023-11-19T15:23:13;9.80;99.90
11591;DHT22;5851;54.050;9.974;2023-11-19T15:25:41;9.80;99.90
11591;DHT22;5851;54.050;9.974;2023-11-19T15:28:09;9.70;99.90
11591;DHT22;5851;54.050;9.974;2023-11-19T15:30:37;9.70;99.90
11591;DHT22;5851;54.050;9.974;2023-11-19T15:33:05;9.70;99.90
11591;DHT22;5851;54.050;9.974;2023-11-19T15:35:34;9.70;99.90
11591;DHT22;5851;54.050;9.974;2023-11-19T15:38:01;9.70;99.90
11591;DHT22;5851;54.050;9.974;2023-11-19T15:40:28;9.70;99.90
11591;DHT22;5851;54.050;9.974;2023-11-19T15:42:55;9.70;99.90
11591;DHT22;5851;54.050;9.974;2023-11-19T15:45:24;9.70;99.90
11591;DHT22;5851;54.050;9.974;2023-11-19T15:47:51;9.60;99.90
11591;DHT22;5851;54.050;9.974;2023-11-19T15:50:18;9.70;99.90
11591;DHT22;5851;54.050;9.974;2023-11-19T15:52:45;9.60;99.90
11591;DHT22;5851;54.050;9.974;2023-11-19T15:55:12;9.70;99.90
11591;DHT22;5851;54.050;9.974;2023-11-19T15:57:39;9.60;99.90
11591;DHT22;5851;54.050;9.974;2023-11-19T16:00:06;9.60;99.90
11591;DHT22;5851;54.050;9.974;2023-11-19T16:02:37;9.60;99.90
11591;DHT22;5851;54.050;9.974;2023-11-19T16:05:05;9.60;99.90
11591;DHT22;5851;54.050;9.974;2023-11-19T16:07:34;9.60;99.90